Time;durP1;ratioP1;P1;durP2;ratioP2;P2;SDS_P1;SDS_P2;PMS_P1;PMS_P2;Temp;Humidity;BMP_temperature;BMP_pressure;BME280_temperature;BME280_humidity;BME280_pressure;Samples;Min_cycle;Max_cycle;Signal;HPM_P1;HPM_P2
2022/10/27 00:00:37;;;;;;;12.48;7.88;;;28.80;90.80;;;;;;4928446;29;20032;-52
2022/10/27 00:03:04;;;;;;;10.65;5.22;;;28.80;90.70;;;;;;4927186;29;20035;-45
2022/10/27 00:05:30;;;;;;;11.77;6.20;;;28.80;90.60;;;;;;4928822;29;20244;-45
2022/10/27 00:07:57;;;;;;;11.35;5.07;;;28.70;90.50;;;;;;4928033;29;20099;-46
2022/10/27 00:10:25;;;;;;;7.70;4.03;;;28.70;90.50;;;;;;4928704;29;20323;-45
2022/10/27 00:12:51;;;;;;;6.03;3.00;;;28.70;90.50;;;;;;4927673;29;20040;-45
2022/10/27 00:15:18;;;;;;;10.23;3.00;;;28.70;90.60;;;;;;4927151;29;20303;-50
2022/10/27 00:17:45;;;;;;;7.22;3.20;;;28.70;90.60;;;;;;4928175;29;20032;-49
2022/10/27 00:20:12;;;;;;;6.45;2.50;;;28.70;90.60;;;;;;4911619;29;20043;-48
2022/10/27 00:22:38;;;;;;;5.00;2.50;;;28.70;90.60;;;;;;4927377;29;20041;-48
2022/10/27 00:25:06;;;;;;;8.00;2.30;;;28.70;90.50;;;;;;4928642;29;20043;-52
2022/10/27 00:27:32;;;;;;;4.63;1.92;;;28.70;90.60;;;;;;4928010;29;20408;-44
2022/10/27 00:29:59;;;;;;;6.50;2.17;;;28.70;90.50;;;;;;4928407;29;20300;-51
2022/10/27 00:32:26;;;;;;;2.88;1.63;;;28.70;90.50;;;;;;4928028;29;20091;-45
2022/10/27 00:34:52;;;;;;;7.88;1.85;;;28.60;90.40;;;;;;4926646;29;20156;-51
2022/10/27 00:37:19;;;;;;;5.97;1.95;;;28.60;90.40;;;;;;4926642;29;20095;-44
2022/10/27 00:39:47;;;;;;;7.18;1.60;;;28.60;90.30;;;;;;4928225;29;20028;-48
2022/10/27 00:42:14;;;;;;;5.63;2.00;;;28.60;90.30;;;;;;4927830;29;20040;-43
2022/10/27 00:44:47;;;;;;;5.97;2.10;;;28.60;90.10;;;;;;4927931;29;20094;-44
2022/10/27 00:47:33;;;;;;;3.85;2.00;;;28.60;90.30;;;;;;4929378;29;20052;-44
2022/10/27 00:50:05;;;;;;;5.03;2.33;;;28.60;90.40;;;;;;4947150;29;20083;-47
2022/10/27 00:52:39;;;;;;;7.38;2.90;;;28.60;90.40;;;;;;4946510;29;20035;-45
2022/10/27 00:55:24;;;;;;;5.15;2.45;;;28.60;90.50;;;;;;4947260;29;20075;-44
2022/10/27 00:57:54;;;;;;;6.03;3.10;;;28.60;90.60;;;;;;4946808;29;20024;-46
2022/10/27 01:00:21;;;;;;;9.95;5.22;;;28.60;90.80;;;;;;4947186;29;20066;-44
2022/10/27 01:02:48;;;;;;;9.77;5.32;;;28.60;90.90;;;;;;4929613;29;20075;-48
2022/10/27 01:05:19;;;;;;;8.00;4.85;;;28.60;90.90;;;;;;4947082;29;20275;-52
2022/10/27 01:07:47;;;;;;;11.73;4.88;;;28.60;91.10;;;;;;4929366;29;20027;-46
2022/10/27 01:10:15;;;;;;;9.63;4.13;;;28.60;91.20;;;;;;4946723;29;20054;-47
2022/10/27 01:12:43;;;;;;;10.15;3.55;;;28.60;91.40;;;;;;4946537;29;20024;-46
2022/10/27 01:15:11;;;;;;;17.45;4.43;;;28.60;91.40;;;;;;4946918;29;20227;-48
2022/10/27 01:17:52;;;;;;;10.48;3.55;;;28.60;91.50;;;;;;4946364;29;20094;-49
2022/10/27 01:20:56;;;;;;;8.23;3.08;;;28.60;91.60;;;;;;4947240;29;20032;-48
2022/10/27 01:23:34;;;;;;;12.88;2.97;;;28.60;91.80;;;;;;4945912;29;20031;-48
2022/10/27 01:26:06;;;;;;;7.47;2.60;;;28.60;91.90;;;;;;4941091;29;20199;-44
2022/10/27 01:28:45;;;;;;;7.88;2.13;;;28.60;92.00;;;;;;4945924;29;20032;-46
2022/10/27 01:31:18;;;;;;;5.22;2.25;;;28.60;92.10;;;;;;4939859;29;20059;-43
2022/10/27 01:33:53;;;;;;;8.73;2.30;;;28.50;92.20;;;;;;4935544;29;20032;-47
2022/10/27 01:36:25;;;;;;;7.07;1.90;;;28.50;92.40;;;;;;4932918;29;20064;-54
2022/10/27 01:39:05;;;;;;;3.95;1.70;;;28.50;92.40;;;;;;4937553;29;20028;-47
2022/10/27 01:41:41;;;;;;;8.57;1.95;;;28.50;92.70;;;;;;4943916;29;20267;-45
2022/10/27 01:44:14;;;;;;;6.47;1.55;;;28.40;92.80;;;;;;4949668;29;20028;-49
2022/10/27 01:46:43;;;;;;;6.57;1.80;;;28.40;92.90;;;;;;4949431;29;20046;-52
2022/10/27 01:49:10;;;;;;;8.32;1.50;;;28.40;92.90;;;;;;4948823;29;20070;-53
2022/10/27 01:51:36;;;;;;;8.98;1.75;;;28.40;92.90;;;;;;4948259;29;20024;-46
2022/10/27 01:54:04;;;;;;;5.75;2.10;;;28.40;92.90;;;;;;4949560;29;20292;-48
2022/10/27 01:57:19;;;;;;;9.07;2.70;;;28.30;93.00;;;;;;4948979;29;20334;-43
2022/10/27 01:59:58;;;;;;;9.15;2.60;;;28.30;93.10;;;;;;4947942;29;20248;-49
2022/10/27 02:02:57;;;;;;;4.47;2.10;;;28.20;93.10;;;;;;4948529;29;20031;-43
2022/10/27 02:05:42;;;;;;;6.13;2.38;;;28.30;93.10;;;;;;4946555;29;20030;-52
2022/10/27 02:08:50;;;;;;;8.90;2.88;;;28.30;93.00;;;;;;4949073;29;20098;-44
2022/10/27 02:11:17;;;;;;;9.13;8.05;;;28.30;93.00;;;;;;4947728;29;20055;-43
2022/10/27 02:13:45;;;;;;;12.25;5.00;;;28.40;93.10;;;;;;4948627;29;20035;-43
2022/10/27 02:16:23;;;;;;;9.20;4.47;;;28.30;92.80;;;;;;4949105;29;20028;-42
2022/10/27 02:19:09;;;;;;;7.75;5.30;;;28.30;92.60;;;;;;4948855;29;20031;-45
2022/10/27 02:21:38;;;;;;;12.00;8.73;;;28.40;92.50;;;;;;4949072;29;20047;-46
2022/10/27 02:24:06;;;;;;;10.55;5.95;;;28.40;92.40;;;;;;4948911;29;20204;-42
2022/10/27 02:26:32;;;;;;;7.20;5.55;;;28.40;92.30;;;;;;4948693;29;20098;-43
2022/10/27 02:29:06;;;;;;;8.27;4.93;;;28.40;92.20;;;;;;4947739;29;20036;-45
2022/10/27 02:31:38;;;;;;;6.70;4.13;;;28.40;92.10;;;;;;4942962;29;20034;-44
2022/10/27 02:34:06;;;;;;;5.57;3.65;;;28.30;92.30;;;;;;4947383;29;20028;-45
2022/10/27 02:36:34;;;;;;;5.30;3.30;;;28.30;92.00;;;;;;4948377;29;20023;-50
2022/10/27 02:39:01;;;;;;;6.90;2.78;;;28.30;92.00;;;;;;4948655;29;20039;-45
2022/10/27 02:41:29;;;;;;;3.58;1.90;;;28.30;92.10;;;;;;4945437;29;20023;-49
2022/10/27 02:43:55;;;;;;;5.40;2.00;;;28.30;92.00;;;;;;4914171;29;20331;-46
2022/10/27 02:46:22;;;;;;;5.07;2.00;;;28.30;92.10;;;;;;4947788;29;20087;-49
2022/10/27 02:48:48;;;;;;;5.32;1.63;;;28.30;92.10;;;;;;4947911;29;20058;-44
2022/10/27 02:51:15;;;;;;;7.53;1.45;;;28.20;92.00;;;;;;4948131;29;20051;-45
2022/10/27 02:53:43;;;;;;;7.07;1.65;;;28.30;92.10;;;;;;4947623;29;20351;-42
2022/10/27 02:56:09;;;;;;;6.40;1.30;;;28.30;92.00;;;;;;4947896;29;20039;-44
2022/10/27 02:58:36;;;;;;;4.55;1.17;;;28.30;92.10;;;;;;4947685;29;20074;-43
2022/10/27 03:01:03;;;;;;;4.95;1.20;;;28.30;92.00;;;;;;4946234;29;20098;-46
2022/10/27 03:03:29;;;;;;;5.10;1.17;;;28.20;92.10;;;;;;4948113;29;20083;-43
2022/10/27 03:05:56;;;;;;;4.55;1.10;;;28.30;92.20;;;;;;4948039;29;20327;-43
2022/10/27 03:08:23;;;;;;;4.50;0.80;;;28.20;92.10;;;;;;4947988;29;20054;-44
2022/10/27 03:10:49;;;;;;;6.20;1.10;;;28.20;92.10;;;;;;4948066;29;20078;-44
2022/10/27 03:13:16;;;;;;;6.97;0.90;;;28.30;92.20;;;;;;4947827;29;20315;-45
2022/10/27 03:15:44;;;;;;;6.75;1.00;;;28.30;92.00;;;;;;4947403;29;20031;-43
2022/10/27 03:18:11;;;;;;;10.88;1.13;;;28.30;92.00;;;;;;4947847;29;20024;-46
2022/10/27 03:20:37;;;;;;;3.90;0.93;;;28.30;92.00;;;;;;4948189;29;20083;-44
2022/10/27 03:23:04;;;;;;;3.75;0.95;;;28.20;92.30;;;;;;4948190;29;20106;-44
2022/10/27 03:25:31;;;;;;;4.85;0.95;;;28.20;92.10;;;;;;4950515;29;20063;-46
2022/10/27 03:27:57;;;;;;;5.70;0.93;;;28.20;91.90;;;;;;4958296;29;20045;-43
2022/10/27 03:30:24;;;;;;;4.85;1.10;;;28.20;91.80;;;;;;4947728;29;20252;-44
2022/10/27 03:32:51;;;;;;;6.07;0.98;;;28.20;91.80;;;;;;4947536;29;20339;-45
2022/10/27 03:35:19;;;;;;;4.05;0.98;;;28.20;91.70;;;;;;4947790;29;20020;-48
2022/10/27 03:37:53;;;;;;;6.47;1.10;;;28.20;91.70;;;;;;4947515;29;20024;-43
2022/10/27 03:40:20;;;;;;;2.55;1.13;;;28.20;91.60;;;;;;4947131;29;20059;-43
2022/10/27 03:42:46;;;;;;;3.67;0.90;;;28.20;91.60;;;;;;4946480;29;20031;-48
2022/10/27 03:45:13;;;;;;;6.18;1.20;;;28.20;91.60;;;;;;4946559;29;20227;-42
2022/10/27 03:47:39;;;;;;;5.78;0.90;;;28.20;91.60;;;;;;4947284;29;20355;-43
2022/10/27 03:50:06;;;;;;;4.53;0.98;;;28.20;91.60;;;;;;4947266;29;20040;-43
2022/10/27 03:52:33;;;;;;;2.67;0.85;;;28.10;91.50;;;;;;4947197;29;20035;-46
2022/10/27 03:55:00;;;;;;;3.70;0.90;;;28.10;91.60;;;;;;4947532;29;20276;-52
2022/10/27 03:57:26;;;;;;;3.80;1.10;;;28.20;91.70;;;;;;4946902;29;20042;-50
2022/10/27 03:59:53;;;;;;;2.95;0.90;;;28.20;91.80;;;;;;4947198;29;20240;-48
2022/10/27 04:02:19;;;;;;;2.40;0.98;;;28.10;91.80;;;;;;4946714;29;20096;-46
2022/10/27 04:04:46;;;;;;;1.73;0.95;;;28.10;91.80;;;;;;4947156;29;20035;-45
2022/10/27 04:07:12;;;;;;;7.38;1.13;;;28.10;91.90;;;;;;4947018;29;20039;-44
2022/10/27 04:09:39;;;;;;;3.88;0.90;;;28.10;91.90;;;;;;4947043;29;20251;-44
2022/10/27 04:12:06;;;;;;;6.47;1.50;;;28.10;91.90;;;;;;4946828;29;20047;-46
2022/10/27 04:14:32;;;;;;;4.47;1.15;;;28.10;92.00;;;;;;4947042;29;20161;-56
2022/10/27 04:16:59;;;;;;;10.30;1.23;;;28.10;92.20;;;;;;4946281;29;20047;-44
2022/10/27 04:19:25;;;;;;;4.28;1.40;;;28.10;92.30;;;;;;4947029;29;20032;-43
2022/10/27 04:21:52;;;;;;;7.07;1.50;;;28.10;92.50;;;;;;4945441;29;20375;-45
2022/10/27 04:24:18;;;;;;;6.57;1.52;;;28.10;92.60;;;;;;4946904;29;20060;-41
2022/10/27 04:26:45;;;;;;;5.32;1.60;;;28.00;92.60;;;;;;4946727;29;20028;-44
2022/10/27 04:29:11;;;;;;;4.43;1.35;;;28.10;92.90;;;;;;4946554;29;20043;-43
2022/10/27 04:31:38;;;;;;;4.70;1.55;;;28.10;93.10;;;;;;4946279;29;20030;-47
2022/10/27 04:34:04;;;;;;;7.20;1.35;;;28.00;93.20;;;;;;4946864;29;20223;-43
2022/10/27 04:36:31;;;;;;;5.70;1.60;;;28.00;93.30;;;;;;4946475;29;20012;-44
2022/10/27 04:38:58;;;;;;;8.98;2.55;;;28.00;93.40;;;;;;4946733;29;20039;-43
2022/10/27 04:41:24;;;;;;;9.27;2.20;;;27.90;93.40;;;;;;4946471;29;20224;-44
2022/10/27 04:43:51;;;;;;;6.55;1.75;;;27.90;93.40;;;;;;4946332;29;20052;-50
2022/10/27 04:46:18;;;;;;;7.10;1.95;;;27.90;93.50;;;;;;4945974;29;20031;-46
2022/10/27 04:48:44;;;;;;;9.07;1.90;;;27.90;93.50;;;;;;4945500;29;20043;-44
2022/10/27 04:51:11;;;;;;;5.85;2.13;;;27.90;93.40;;;;;;4945947;29;20062;-44
2022/10/27 04:53:37;;;;;;;7.75;2.20;;;27.90;93.50;;;;;;4946496;29;20027;-44
2022/10/27 04:56:04;;;;;;;7.03;1.90;;;27.90;93.60;;;;;;4946497;29;20039;-43
2022/10/27 04:58:30;;;;;;;5.07;1.92;;;27.90;93.60;;;;;;4946263;29;20091;-45
2022/10/27 05:00:57;;;;;;;7.28;2.13;;;27.90;93.70;;;;;;4945968;29;20051;-47
2022/10/27 05:03:23;;;;;;;6.20;1.80;;;27.80;93.60;;;;;;4946364;29;20039;-42
2022/10/27 05:05:50;;;;;;;6.38;1.92;;;27.80;93.70;;;;;;4946270;29;20032;-44
2022/10/27 05:08:16;;;;;;;7.28;1.50;;;27.80;93.70;;;;;;4947973;29;20035;-47
2022/10/27 05:10:43;;;;;;;5.65;1.55;;;27.80;93.70;;;;;;4950579;29;20245;-47
2022/10/27 05:13:10;;;;;;;5.40;1.60;;;27.80;93.70;;;;;;4950289;29;20024;-46
2022/10/27 05:15:36;;;;;;;4.50;1.60;;;27.80;93.70;;;;;;4950254;29;20047;-43
2022/10/27 05:18:03;;;;;;;3.42;1.35;;;27.80;93.70;;;;;;4950151;29;20055;-49
2022/10/27 05:20:29;;;;;;;7.00;1.50;;;27.80;93.70;;;;;;4950490;29;20085;-42
2022/10/27 05:22:56;;;;;;;5.05;1.42;;;27.80;93.70;;;;;;4949834;29;20063;-42
2022/10/27 05:25:23;;;;;;;2.92;1.35;;;27.70;93.70;;;;;;4949788;29;20199;-42
2022/10/27 05:27:49;;;;;;;5.40;1.40;;;27.70;93.70;;;;;;4949835;29;20070;-51
2022/10/27 05:30:16;;;;;;;4.97;1.40;;;27.70;93.70;;;;;;4949647;29;20264;-44
2022/10/27 05:32:43;;;;;;;4.00;1.38;;;27.70;93.70;;;;;;4949398;29;20083;-46
2022/10/27 05:35:09;;;;;;;4.18;1.13;;;27.70;93.80;;;;;;4950056;29;20036;-45
2022/10/27 05:37:36;;;;;;;2.08;1.20;;;27.70;93.80;;;;;;4949715;29;20026;-49
2022/10/27 05:40:03;;;;;;;5.13;1.40;;;27.70;93.80;;;;;;4949973;29;20316;-43
2022/10/27 05:42:29;;;;;;;4.22;1.15;;;27.70;93.80;;;;;;4949531;29;20374;-43
2022/10/27 05:44:56;;;;;;;2.22;1.25;;;27.60;93.80;;;;;;4949063;29;20047;-46
2022/10/27 05:47:22;;;;;;;4.85;1.40;;;27.60;93.90;;;;;;4949336;29;20039;-43
2022/10/27 05:49:49;;;;;;;3.75;1.23;;;27.60;93.90;;;;;;4949706;29;20151;-43
2022/10/27 05:52:15;;;;;;;2.22;1.13;;;27.60;94.00;;;;;;4949352;29;20035;-45
2022/10/27 05:54:42;;;;;;;4.38;1.48;;;27.70;94.00;;;;;;4949733;29;20075;-49
2022/10/27 05:57:09;;;;;;;1.85;1.10;;;27.60;94.00;;;;;;4949312;29;20039;-43
2022/10/27 05:59:35;;;;;;;3.75;1.20;;;27.60;94.00;;;;;;4949135;29;20042;-56
2022/10/27 06:02:02;;;;;;;3.22;1.10;;;27.60;94.00;;;;;;4949286;29;20032;-43
2022/10/27 06:04:28;;;;;;;5.55;1.17;;;27.60;94.00;;;;;;4949466;29;20043;-43
2022/10/27 06:06:55;;;;;;;2.47;1.10;;;27.60;94.00;;;;;;4948962;29;20323;-45
2022/10/27 06:09:21;;;;;;;3.72;1.20;;;27.60;94.00;;;;;;4949222;29;20050;-45
2022/10/27 06:11:48;;;;;;;3.08;1.30;;;27.60;94.10;;;;;;4949279;29;20075;-45
2022/10/27 06:14:14;;;;;;;2.50;1.00;;;27.60;94.10;;;;;;4948790;29;20035;-53
2022/10/27 06:16:41;;;;;;;1.15;0.90;;;27.60;94.10;;;;;;4948982;29;20024;-55
2022/10/27 06:19:07;;;;;;;2.15;0.85;;;27.60;94.20;;;;;;4949195;29;20326;-43
2022/10/27 06:21:34;;;;;;;2.15;0.98;;;27.50;94.10;;;;;;4948894;29;20095;-44
2022/10/27 06:24:01;;;;;;;2.35;0.90;;;27.50;94.20;;;;;;4948971;29;20035;-44
2022/10/27 06:26:27;;;;;;;1.85;0.93;;;27.60;94.20;;;;;;4948773;29;20036;-43
2022/10/27 06:28:54;;;;;;;3.53;1.27;;;27.50;94.20;;;;;;4948444;29;20019;-49
2022/10/27 06:31:20;;;;;;;1.77;0.80;;;27.60;94.20;;;;;;4948601;29;20078;-41
2022/10/27 06:33:47;;;;;;;2.25;1.00;;;27.60;94.30;;;;;;4948833;29;20036;-42
2022/10/27 06:36:13;;;;;;;2.08;0.82;;;27.60;94.20;;;;;;4948908;29;20055;-41
2022/10/27 06:38:40;;;;;;;1.73;0.93;;;27.50;94.20;;;;;;4948494;29;20031;-45
2022/10/27 06:41:06;;;;;;;3.10;1.10;;;27.60;94.30;;;;;;4948559;29;20024;-45
2022/10/27 06:43:33;;;;;;;2.50;0.98;;;27.50;94.30;;;;;;4948266;29;20031;-45
2022/10/27 06:45:59;;;;;;;2.78;0.80;;;27.50;94.30;;;;;;4948412;29;20039;-44
2022/10/27 06:48:26;;;;;;;17.88;1.23;;;27.50;94.30;;;;;;4948310;29;20110;-44
2022/10/27 06:50:52;;;;;;;2.60;1.00;;;27.50;94.30;;;;;;4948475;29;20039;-45
2022/10/27 06:53:19;;;;;;;2.05;1.00;;;27.50;94.40;;;;;;4948128;29;20023;-42
2022/10/27 06:55:45;;;;;;;1.88;0.90;;;27.50;94.30;;;;;;4948199;29;20027;-43
2022/10/27 06:58:12;;;;;;;0.95;0.80;;;27.50;94.40;;;;;;4948074;29;20050;-47
2022/10/27 07:00:38;;;;;;;1.73;0.90;;;27.50;94.40;;;;;;4948549;29;20098;-43
2022/10/27 07:03:09;;;;;;;3.17;1.08;;;27.50;94.40;;;;;;4948321;29;20043;-43
2022/10/27 07:05:36;;;;;;;5.43;1.10;;;27.40;94.40;;;;;;4948505;29;20024;-44
2022/10/27 07:08:02;;;;;;;2.10;1.02;;;27.40;94.40;;;;;;4948034;29;20099;-45
2022/10/27 07:10:29;;;;;;;2.05;0.90;;;27.40;94.40;;;;;;4948421;29;20044;-42
2022/10/27 07:12:57;;;;;;;4.10;0.90;;;27.40;94.40;;;;;;4948068;29;20095;-43
2022/10/27 07:15:30;;;;;;;4.22;0.93;;;27.40;94.40;;;;;;4947635;29;20103;-43
2022/10/27 07:17:58;;;;;;;3.15;0.80;;;27.50;94.40;;;;;;4947839;29;20083;-45
2022/10/27 07:20:26;;;;;;;2.85;0.85;;;27.40;94.40;;;;;;4948341;29;20050;-43
2022/10/27 07:22:52;;;;;;;8.80;1.00;;;27.40;94.40;;;;;;4947732;29;20085;-43
2022/10/27 07:25:19;;;;;;;2.45;0.98;;;27.40;94.40;;;;;;4948172;29;20207;-44
2022/10/27 07:27:53;;;;;;;2.00;0.90;;;27.40;94.40;;;;;;4947717;29;20103;-46
2022/10/27 07:30:21;;;;;;;5.75;1.00;;;27.40;94.40;;;;;;4947634;29;20028;-46
2022/10/27 07:32:48;;;;;;;2.95;0.93;;;27.40;94.40;;;;;;4930768;29;20043;-43
2022/10/27 07:35:15;;;;;;;3.03;1.00;;;27.40;94.40;;;;;;4947969;29;20028;-49
2022/10/27 07:37:48;;;;;;;1.50;0.90;;;27.40;94.40;;;;;;4947702;29;20383;-43
2022/10/27 07:40:17;;;;;;;2.63;1.00;;;27.30;94.50;;;;;;4947791;29;20095;-42
2022/10/27 07:42:48;;;;;;;4.25;0.98;;;27.30;94.50;;;;;;4946936;29;20030;-50
2022/10/27 07:45:17;;;;;;;1.53;0.90;;;27.30;94.50;;;;;;4947828;29;20040;-48
2022/10/27 07:47:46;;;;;;;2.60;0.90;;;27.30;94.50;;;;;;4947373;29;20200;-46
2022/10/27 07:50:14;;;;;;;1.92;1.02;;;27.30;94.50;;;;;;4947417;29;20048;-45
2022/10/27 07:52:44;;;;;;;2.55;1.00;;;27.30;94.60;;;;;;4947222;29;20023;-43
2022/10/27 07:55:13;;;;;;;5.85;1.00;;;27.30;94.60;;;;;;4947458;29;20035;-46
2022/10/27 07:57:41;;;;;;;2.15;1.10;;;27.30;94.60;;;;;;4946512;29;20024;-50
2022/10/27 08:00:13;;;;;;;7.95;1.00;;;27.30;94.60;;;;;;4947521;29;20023;-46
2022/10/27 08:02:39;;;;;;;;;;;27.30;94.60;;;;;;4947268;29;20035;-45
2022/10/27 08:05:07;;;;;;;4.93;1.10;;;27.30;94.70;;;;;;4947531;29;19921;-45
2022/10/27 08:07:35;;;;;;;4.50;1.10;;;27.30;94.70;;;;;;4947024;29;20046;-44
2022/10/27 08:10:02;;;;;;;4.80;1.33;;;27.30;94.80;;;;;;4947188;29;20326;-48
2022/10/27 08:12:28;;;;;;;2.22;1.05;;;27.30;94.80;;;;;;4946536;29;20031;-46
2022/10/27 08:14:55;;;;;;;1.95;1.08;;;27.30;94.80;;;;;;4946982;29;20193;-44
2022/10/27 08:17:25;;;;;;;2.45;0.98;;;27.30;94.80;;;;;;4946938;29;20236;-46
2022/10/27 08:19:51;;;;;;;5.18;1.27;;;27.30;94.80;;;;;;4947102;29;20067;-43
2022/10/27 08:22:18;;;;;;;4.30;1.10;;;27.30;94.80;;;;;;4946888;29;20024;-44
2022/10/27 08:24:45;;;;;;;3.08;1.13;;;27.30;94.80;;;;;;4946918;29;20335;-46
2022/10/27 08:27:11;;;;;;;3.17;1.00;;;27.30;94.80;;;;;;4946799;29;20032;-48
2022/10/27 08:29:38;;;;;;;2.50;1.00;;;27.30;94.80;;;;;;4947043;29;20071;-43
2022/10/27 08:32:05;;;;;;;2.40;0.90;;;27.30;94.90;;;;;;4946747;29;20019;-42
2022/10/27 08:34:32;;;;;;;2.53;0.88;;;27.30;94.90;;;;;;4946788;29;20039;-46
2022/10/27 08:36:59;;;;;;;2.05;0.85;;;27.30;95.00;;;;;;4946626;29;20015;-51
2022/10/27 08:39:25;;;;;;;2.50;1.15;;;27.30;95.00;;;;;;4946800;29;20031;-47
2022/10/27 08:42:09;;;;;;;1.73;0.90;;;27.30;95.00;;;;;;4946028;29;20091;-49
2022/10/27 08:44:50;;;;;;;1.98;0.70;;;27.20;94.90;;;;;;4946580;29;20031;-44
2022/10/27 08:47:22;;;;;;;3.30;0.90;;;27.30;95.00;;;;;;4946313;29;20260;-43
2022/10/27 08:50:06;;;;;;;3.75;0.95;;;27.30;95.00;;;;;;4946738;29;20043;-41
2022/10/27 08:52:43;;;;;;;2.97;0.80;;;27.20;95.00;;;;;;4946383;29;20035;-43
2022/10/27 08:55:10;;;;;;;1.98;0.98;;;27.20;95.00;;;;;;4946659;29;20051;-43
2022/10/27 08:57:38;;;;;;;2.35;0.80;;;27.20;95.00;;;;;;4945911;29;20248;-43
2022/10/27 09:00:09;;;;;;;2.92;0.70;;;27.20;95.10;;;;;;4946371;29;20036;-43
2022/10/27 09:02:45;;;;;;;3.03;0.68;;;27.20;95.00;;;;;;4946310;29;20042;-42
2022/10/27 09:05:30;;;;;;;3.35;0.70;;;27.20;94.80;;;;;;4946767;29;20051;-44
2022/10/27 09:08:11;;;;;;;1.30;0.60;;;27.20;94.90;;;;;;4946227;29;20255;-45
2022/10/27 09:10:57;;;;;;;1.63;0.55;;;27.20;94.80;;;;;;4946393;29;20043;-47
2022/10/27 09:13:47;;;;;;;2.42;0.45;;;27.10;94.80;;;;;;4945754;29;20028;-46
2022/10/27 09:16:42;;;;;;;1.38;0.50;;;27.10;94.80;;;;;;4946257;29;20036;-43
2022/10/27 09:19:17;;;;;;;2.08;0.70;;;27.10;94.90;;;;;;4945938;29;20214;-45
2022/10/27 09:21:43;;;;;;;1.45;0.63;;;27.10;94.80;;;;;;4945780;29;20051;-45
2022/10/27 09:24:16;;;;;;;2.30;0.95;;;27.10;94.80;;;;;;4946520;29;20030;-50
2022/10/27 09:26:46;;;;;;;4.20;1.25;;;27.10;94.80;;;;;;4944927;29;20028;-42
2022/10/27 09:29:25;;;;;;;2.20;1.50;;;27.10;94.70;;;;;;4946055;29;20327;-44
2022/10/27 09:32:25;;;;;;;2.60;1.40;;;27.10;94.80;;;;;;4946078;29;20028;-43
2022/10/27 09:35:01;;;;;;;3.17;1.45;;;27.10;94.70;;;;;;4935863;29;20038;-43
2022/10/27 09:37:30;;;;;;;4.85;1.63;;;27.10;94.60;;;;;;4945514;29;20103;-44
2022/10/27 09:39:58;;;;;;;4.13;1.73;;;27.10;94.60;;;;;;4944040;29;20039;-44
2022/10/27 09:42:29;;;;;;;4.85;1.92;;;27.10;94.60;;;;;;4945636;29;20031;-44
2022/10/27 09:45:03;;;;;;;4.18;1.60;;;27.10;94.60;;;;;;4945625;29;20079;-49
2022/10/27 09:47:38;;;;;;;5.53;1.80;;;27.00;94.60;;;;;;4945477;29;20046;-42
2022/10/27 09:50:06;;;;;;;4.50;1.70;;;27.00;94.50;;;;;;4946088;29;20040;-43
2022/10/27 09:52:43;;;;;;;3.47;1.70;;;27.00;94.60;;;;;;4945913;29;20034;-45
2022/10/27 09:55:11;;;;;;;2.55;1.70;;;27.00;94.60;;;;;;4948801;29;20296;-43
2022/10/27 09:57:39;;;;;;;6.47;2.13;;;27.00;94.60;;;;;;4948922;29;20036;-43
2022/10/27 10:00:15;;;;;;;6.03;2.10;;;27.00;94.60;;;;;;4949752;29;20032;-49
2022/10/27 10:02:59;;;;;;;3.40;2.28;;;27.00;94.60;;;;;;4949098;29;20027;-44
2022/10/27 10:05:32;;;;;;;5.43;2.30;;;27.00;94.60;;;;;;4949589;29;20039;-43
2022/10/27 10:08:12;;;;;;;4.15;2.20;;;27.00;94.70;;;;;;4948950;29;20035;-44
2022/10/27 10:10:52;;;;;;;8.38;2.80;;;27.00;94.70;;;;;;4949575;29;20342;-44
2022/10/27 10:13:21;;;;;;;5.28;2.80;;;27.00;94.70;;;;;;4948433;29;20094;-49
2022/10/27 10:16:03;;;;;;;7.30;3.22;;;27.00;94.70;;;;;;4948983;29;20297;-47
2022/10/27 10:18:31;;;;;;;6.32;2.90;;;26.90;94.60;;;;;;4948681;29;20353;-47
2022/10/27 10:20:59;;;;;;;6.55;3.35;;;27.00;94.70;;;;;;4948677;29;20032;-52
2022/10/27 10:23:40;;;;;;;7.10;3.72;;;26.90;94.60;;;;;;4948865;29;20039;-53
2022/10/27 10:26:26;;;;;;;6.88;3.47;;;26.90;94.60;;;;;;4948408;29;20031;-53
2022/10/27 10:29:15;;;;;;;8.00;4.13;;;26.90;94.60;;;;;;4948846;29;20040;-53
2022/10/27 10:31:42;;;;;;;8.23;5.05;;;26.90;94.60;;;;;;4948674;29;20044;-44
2022/10/27 10:34:32;;;;;;;9.65;4.50;;;26.90;94.60;;;;;;4947686;29;20203;-50
2022/10/27 10:36:58;;;;;;;6.70;4.30;;;26.90;94.60;;;;;;4948863;29;20028;-48
2022/10/27 10:39:27;;;;;;;5.68;3.88;;;26.90;94.60;;;;;;4948868;29;20168;-44
2022/10/27 10:42:20;;;;;;;9.95;3.92;;;26.90;94.60;;;;;;4948421;29;20055;-44
2022/10/27 10:44:47;;;;;;;5.45;3.53;;;26.90;94.60;;;;;;4945638;29;20255;-44
2022/10/27 10:47:43;;;;;;;6.85;3.78;;;26.90;94.70;;;;;;4948442;29;20032;-44
2022/10/27 10:50:13;;;;;;;6.47;3.20;;;26.90;94.70;;;;;;4928642;29;20052;-48
2022/10/27 10:52:45;;;;;;;9.18;2.92;;;26.90;94.70;;;;;;4928830;29;20091;-43
2022/10/27 10:55:28;;;;;;;6.35;2.92;;;26.90;94.80;;;;;;4929546;29;20036;-41
2022/10/27 10:57:57;;;;;;;5.35;2.42;;;26.90;94.80;;;;;;4928292;29;20047;-43
2022/10/27 11:00:23;;;;;;;6.45;2.35;;;26.90;94.80;;;;;;4929709;29;20279;-46
2022/10/27 11:02:52;;;;;;;5.88;3.90;;;26.90;94.80;;;;;;4928498;29;20027;-42
2022/10/27 11:05:23;;;;;;;5.22;3.30;;;26.90;94.80;;;;;;4928602;29;20040;-44
2022/10/27 11:07:51;;;;;;;6.38;3.30;;;26.90;94.90;;;;;;4928943;29;20067;-43
2022/10/27 11:10:53;;;;;;;9.48;5.88;;;26.90;94.90;;;;;;4929320;29;20315;-42
2022/10/27 11:13:56;;;;;;;7.32;4.00;;;26.90;95.00;;;;;;4907359;29;20048;-44
2022/10/27 11:16:24;;;;;;;22.30;4.70;;;26.90;95.10;;;;;;4889309;29;20100;-44
2022/10/27 11:19:06;;;;;;;7.57;2.33;;;26.90;95.10;;;;;;4921391;29;20039;-43
2022/10/27 11:21:41;;;;;;;;;;;26.90;95.30;;;;;;4929139;29;20036;-51
2022/10/27 11:24:14;;;;;;;6.47;2.40;;;26.90;95.30;;;;;;4927414;29;19918;-43
2022/10/27 11:26:58;;;;;;;8.15;2.13;;;26.90;95.40;;;;;;4927235;29;20036;-48
2022/10/27 11:29:40;;;;;;;5.68;2.08;;;26.90;95.50;;;;;;4908056;29;20036;-45
2022/10/27 11:32:42;;;;;;;5.60;1.80;;;26.80;95.40;;;;;;4907235;29;20364;-46
2022/10/27 11:35:23;;;;;;;3.47;1.60;;;26.80;95.40;;;;;;4887064;29;20040;-45
2022/10/27 11:38:04;;;;;;;4.95;1.70;;;26.80;95.40;;;;;;4908174;29;20032;-45
2022/10/27 11:40:50;;;;;;;7.45;1.70;;;26.80;95.50;;;;;;4907925;29;20029;-45
2022/10/27 11:43:40;;;;;;;3.60;1.38;;;26.90;95.50;;;;;;4907917;29;20101;-45
2022/10/27 11:46:13;;;;;;;4.93;1.30;;;26.90;95.50;;;;;;4909189;29;20037;-48
2022/10/27 11:48:46;;;;;;;7.00;3.78;;;26.90;95.50;;;;;;4919574;29;20052;-45
2022/10/27 11:51:17;;;;;;;4.93;1.80;;;26.90;95.50;;;;;;4928016;29;20032;-44
2022/10/27 11:53:44;;;;;;;5.70;2.08;;;26.90;95.60;;;;;;4928226;29;20104;-44
2022/10/27 11:56:26;;;;;;;4.65;1.75;;;26.90;95.60;;;;;;4927654;29;20062;-44
2022/10/27 11:59:11;;;;;;;6.07;1.55;;;26.90;95.60;;;;;;4928202;29;20084;-45
2022/10/27 12:01:59;;;;;;;2.50;1.80;;;26.90;95.60;;;;;;4928033;29;20016;-44
2022/10/27 12:05:13;;;;;;;4.85;1.80;;;26.90;95.60;;;;;;4928163;29;20040;-45
2022/10/27 12:07:58;;;;;;;3.60;1.40;;;26.90;95.70;;;;;;4911799;29;20144;-44
2022/10/27 12:10:27;;;;;;;3.00;1.20;;;26.90;95.70;;;;;;4927915;29;20124;-44
2022/10/27 12:13:16;;;;;;;3.78;1.33;;;26.90;95.70;;;;;;4927966;29;20228;-45
2022/10/27 12:15:59;;;;;;;3.15;1.48;;;26.90;95.80;;;;;;4891257;29;20040;-44
2022/10/27 12:18:33;;;;;;;4.68;1.20;;;26.90;95.80;;;;;;4927359;29;20023;-45
2022/10/27 12:21:16;;;;;;;3.88;1.50;;;26.90;95.90;;;;;;4928016;29;20054;-45
2022/10/27 12:23:54;;;;;;;;;;;26.90;95.90;;;;;;4928078;29;20104;-47
2022/10/27 12:26:25;;;;;;;6.38;1.17;;;27.00;95.90;;;;;;4927398;29;19914;-44
2022/10/27 12:28:52;;;;;;;4.82;1.27;;;26.90;95.90;;;;;;4927796;29;20324;-45
2022/10/27 12:31:26;;;;;;;3.92;1.55;;;27.00;96.00;;;;;;4927450;29;20036;-48
2022/10/27 12:34:00;;;;;;;3.13;1.50;;;27.00;96.00;;;;;;4927688;29;20034;-46
2022/10/27 12:36:30;;;;;;;4.97;1.45;;;27.00;96.00;;;;;;4927506;29;20042;-44
2022/10/27 12:38:56;;;;;;;4.10;1.20;;;27.00;96.00;;;;;;4927569;29;20036;-45
2022/10/27 12:41:32;;;;;;;1.73;1.20;;;27.00;96.00;;;;;;4927094;29;20047;-42
2022/10/27 12:44:17;;;;;;;4.20;1.40;;;27.00;96.00;;;;;;4927508;29;20051;-50
2022/10/27 12:46:47;;;;;;;6.00;1.30;;;27.00;95.90;;;;;;4927548;29;20091;-43
2022/10/27 12:49:43;;;;;;;4.85;1.38;;;27.00;95.90;;;;;;4912913;29;20174;-49
2022/10/27 12:52:23;;;;;;;3.28;1.30;;;27.10;96.00;;;;;;4908387;29;20080;-45
2022/10/27 12:55:17;;;;;;;4.57;1.48;;;27.00;96.00;;;;;;4908309;29;20060;-42
2022/10/27 12:58:07;;;;;;;9.35;1.30;;;27.10;95.90;;;;;;4908516;29;20024;-41
2022/10/27 13:01:10;;;;;;;2.08;0.90;;;27.10;96.00;;;;;;4908694;29;20052;-43
2022/10/27 13:04:01;;;;;;;1.58;1.00;;;27.10;95.90;;;;;;4908228;29;20043;-46
2022/10/27 13:06:40;;;;;;;2.67;1.23;;;27.10;95.80;;;;;;4908347;29;20029;-45
2022/10/27 13:09:28;;;;;;;3.90;0.90;;;27.10;95.80;;;;;;4908428;29;20273;-45
2022/10/27 13:12:25;;;;;;;2.80;1.20;;;27.10;95.70;;;;;;4908289;29;20292;-44